createdAt,value
2022-08-27T00:00:03.669Z,96.80
2022-08-27T00:01:03.939Z,102.30
2022-08-27T00:02:04.222Z,101.50
2022-08-27T00:03:04.420Z,105.10
2022-08-27T00:04:04.703Z,91.90
2022-08-27T00:05:04.974Z,93.10
2022-08-27T00:06:05.249Z,90.80
2022-08-27T00:07:05.440Z,97.00
2022-08-27T00:08:05.724Z,102.80
2022-08-27T00:09:05.991Z,96.60
2022-08-27T00:10:06.276Z,95.80
2022-08-27T00:11:06.548Z,98.60
2022-08-27T00:12:06.798Z,99.90
2022-08-27T00:13:07.067Z,89.50
2022-08-27T00:14:07.377Z,93.90
2022-08-27T00:15:07.530Z,91.50
2022-08-27T00:16:07.827Z,84.30
2022-08-27T00:17:08.089Z,94.20
2022-08-27T00:18:08.357Z,103.10
2022-08-27T00:19:08.614Z,103.10
2022-08-27T00:20:08.882Z,99.60
2022-08-27T00:21:09.165Z,105.30
2022-08-27T00:22:09.532Z,97.50
2022-08-27T00:23:09.730Z,97.70
2022-08-27T00:24:09.995Z,99.70
2022-08-27T00:25:10.271Z,99.70
2022-08-27T00:26:10.530Z,111.40
2022-08-27T00:27:10.778Z,106.50
2022-08-27T00:28:11.206Z,110.20
2022-08-27T00:29:11.215Z,105.40
2022-08-27T00:30:11.509Z,109.80
2022-08-27T00:31:12.306Z,109.30
2022-08-27T00:32:12.092Z,110.30
2022-08-27T00:33:12.244Z,110.20
2022-08-27T00:34:12.890Z,106.40
2022-08-27T00:35:12.724Z,118.70
2022-08-27T00:36:12.978Z,115.20
2022-08-27T00:37:13.233Z,109.10
2022-08-27T00:38:13.512Z,105.40
2022-08-27T00:39:13.759Z,113.30
2022-08-27T00:40:14.092Z,105.10
2022-08-27T00:41:17.118Z,103.70
2022-08-27T00:42:14.576Z,98.20
2022-08-27T00:43:14.934Z,98.70
2022-08-27T00:44:15.051Z,94.60
2022-08-27T00:45:15.334Z,93.40
2022-08-27T00:46:15.701Z,98.20
2022-08-27T00:47:15.775Z,100.30
2022-08-27T00:48:16.028Z,99.50
2022-08-27T00:49:16.213Z,86.30
2022-08-27T00:50:16.488Z,90.70
2022-08-27T00:51:16.738Z,91.30
2022-08-27T00:52:16.993Z,86.60
2022-08-27T00:53:17.275Z,89.60
2022-08-27T00:54:18.723Z,88.60
2022-08-27T00:55:17.740Z,90.30
2022-08-27T00:56:17.988Z,101.00
2022-08-27T00:57:18.243Z,88.30
2022-08-27T00:58:18.487Z,101.70
2022-08-27T00:59:18.732Z,84.90
2022-08-27T01:00:19.015Z,91.80
2022-08-27T01:01:19.348Z,92.40
2022-08-27T01:02:19.611Z,84.80
2022-08-27T01:03:20.638Z,97.00
2022-08-27T01:04:20.052Z,94.80
2022-08-27T01:05:20.229Z,91.60
2022-08-27T01:06:20.470Z,88.10
2022-08-27T01:07:20.729Z,89.40
2022-08-27T01:08:20.989Z,92.70
2022-08-27T01:09:21.235Z,90.80
2022-08-27T01:10:21.505Z,89.00
2022-08-27T01:11:21.757Z,91.00
2022-08-27T01:12:22.010Z,97.20
2022-08-27T01:13:22.281Z,89.00
2022-08-27T01:14:23.514Z,91.00
2022-08-27T01:15:22.780Z,93.10
2022-08-27T01:16:23.085Z,99.30
2022-08-27T01:17:23.250Z,94.40
2022-08-27T01:18:23.516Z,100.30
2022-08-27T01:19:23.758Z,88.80
2022-08-27T01:20:24.036Z,93.90
2022-08-27T01:21:24.293Z,90.30
2022-08-27T01:22:24.546Z,101.40
2022-08-27T01:23:24.795Z,96.30
2022-08-27T01:24:25.061Z,105.50
2022-08-27T01:25:25.342Z,94.40
2022-08-27T01:26:25.605Z,94.90
2022-08-27T01:27:25.861Z,102.20
2022-08-27T01:28:26.826Z,106.20
2022-08-27T01:29:27.312Z,102.20
2022-08-27T01:30:26.594Z,101.40
2022-08-27T01:31:26.910Z,111.10
2022-08-27T01:32:27.035Z,110.10
2022-08-27T01:33:27.284Z,114.50
2022-08-27T01:34:27.539Z,113.20
2022-08-27T01:35:27.806Z,104.30
2022-08-27T01:36:28.048Z,123.60
2022-08-27T01:37:28.325Z,118.90
2022-08-27T01:38:30.642Z,117.90
2022-08-27T01:39:28.797Z,122.20
2022-08-27T01:40:29.054Z,130.80
2022-08-27T01:41:29.297Z,130.70
2022-08-27T01:42:29.554Z,118.80
2022-08-27T01:43:29.812Z,125.90
2022-08-27T01:44:30.064Z,125.20
2022-08-27T01:45:30.343Z,127.10
2022-08-27T01:46:30.644Z,125.10
2022-08-27T01:47:31.372Z,112.40
2022-08-27T01:48:31.037Z,118.80
2022-08-27T01:49:31.298Z,123.50
2022-08-27T01:50:31.594Z,121.20
2022-08-27T01:51:31.827Z,119.40
2022-08-27T01:52:32.075Z,122.20
2022-08-27T01:53:32.340Z,119.40
2022-08-27T01:54:32.615Z,124.00
2022-08-27T01:55:32.872Z,122.70
2022-08-27T01:56:33.131Z,124.30
2022-08-27T01:57:33.387Z,111.40
2022-08-27T01:58:33.637Z,116.10
2022-08-27T01:59:39.754Z,106.70
2022-08-27T02:00:35.651Z,115.70
2022-08-27T02:01:34.318Z,107.10
2022-08-27T02:02:34.577Z,103.40
2022-08-27T02:03:34.850Z,104.50
2022-08-27T02:04:35.116Z,116.50
2022-08-27T02:05:42.258Z,109.70
2022-08-27T02:06:36.601Z,104.40
2022-08-27T02:07:35.856Z,112.40
2022-08-27T02:08:36.114Z,116.00
2022-08-27T02:09:36.363Z,120.50
2022-08-27T02:10:36.627Z,122.40
2022-08-27T02:11:44.748Z,114.90
2022-08-27T02:12:38.113Z,111.50
2022-08-27T02:13:37.355Z,118.40
2022-08-27T02:14:37.620Z,114.00
2022-08-27T02:15:37.856Z,117.20
2022-08-27T02:16:38.222Z,103.00
2022-08-27T02:17:39.385Z,109.60
2022-08-27T02:18:38.640Z,120.00
2022-08-27T02:19:38.865Z,113.50
2022-08-27T02:20:39.120Z,111.30
2022-08-27T02:21:39.394Z,103.60
2022-08-27T02:22:39.672Z,118.20
2022-08-27T02:23:39.925Z,113.70
2022-08-27T02:24:40.181Z,116.10
2022-08-27T02:25:40.434Z,116.90
2022-08-27T02:26:40.722Z,102.80
2022-08-27T02:27:40.956Z,114.30
2022-08-27T02:28:41.231Z,109.00
2022-08-27T02:29:41.482Z,107.90
2022-08-27T02:30:41.747Z,108.60
2022-08-27T02:31:42.141Z,105.20
2022-08-27T02:32:42.206Z,101.20
2022-08-27T02:33:42.474Z,101.80
2022-08-27T02:34:42.761Z,108.30
2022-08-27T02:35:43.010Z,109.10
2022-08-27T02:36:43.273Z,104.20
2022-08-27T02:37:43.525Z,108.80
2022-08-27T02:38:43.775Z,105.00
2022-08-27T02:39:46.066Z,102.80
2022-08-27T02:40:44.333Z,97.10
2022-08-27T02:41:44.587Z,111.90
2022-08-27T02:42:44.850Z,106.00
2022-08-27T02:43:45.110Z,110.50
2022-08-27T02:44:45.299Z,103.40
2022-08-27T02:45:45.541Z,103.10
2022-08-27T02:46:45.938Z,110.20
2022-08-27T02:47:46.021Z,104.90
2022-08-27T02:48:46.282Z,104.80
2022-08-27T02:49:46.531Z,108.90
2022-08-27T02:50:46.801Z,106.00
2022-08-27T02:51:47.064Z,102.00
2022-08-27T02:52:47.252Z,104.60
2022-08-27T02:53:47.498Z,100.70
2022-08-27T02:54:47.749Z,92.60
2022-08-27T02:55:47.997Z,91.90
2022-08-27T02:56:48.290Z,101.80
2022-08-27T02:57:48.421Z,114.50
2022-08-27T02:58:48.651Z,97.90
2022-08-27T02:59:48.835Z,97.40
2022-08-27T03:00:49.082Z,99.80
2022-08-27T03:01:49.399Z,95.60
2022-08-27T03:02:49.637Z,99.10
2022-08-27T03:03:49.808Z,95.10
2022-08-27T03:04:50.423Z,95.80
2022-08-27T03:05:50.353Z,103.20
2022-08-27T03:06:50.618Z,106.10
2022-08-27T03:07:50.887Z,105.00
2022-08-27T03:08:52.399Z,108.30
2022-08-27T03:09:51.380Z,114.50
2022-08-27T03:10:51.665Z,117.60
2022-08-27T03:11:51.835Z,101.80
2022-08-27T03:12:52.090Z,109.10
2022-08-27T03:13:52.336Z,104.20
2022-08-27T03:14:52.602Z,111.90
2022-08-27T03:15:52.876Z,108.20
2022-08-27T03:16:53.146Z,108.70
2022-08-27T03:17:53.401Z,95.70
2022-08-27T03:18:53.650Z,107.10
2022-08-27T03:19:53.900Z,105.80
2022-08-27T03:20:54.157Z,100.80
2022-08-27T03:21:55.034Z,101.00
2022-08-27T03:22:54.654Z,107.50
2022-08-27T03:23:54.895Z,107.20
2022-08-27T03:24:55.178Z,106.60
2022-08-27T03:25:55.434Z,107.30
2022-08-27T03:26:55.733Z,105.80
2022-08-27T03:27:55.979Z,117.90
2022-08-27T03:28:56.235Z,114.80
2022-08-27T03:29:59.596Z,119.30
2022-08-27T03:30:57.765Z,125.20
2022-08-27T03:31:56.925Z,121.70
2022-08-27T03:32:57.187Z,123.00
2022-08-27T03:33:57.460Z,126.60
2022-08-27T03:34:57.777Z,125.00
2022-08-27T03:35:57.914Z,144.10
2022-08-27T03:36:58.208Z,152.90
2022-08-27T03:37:58.350Z,153.70
2022-08-27T03:38:58.623Z,139.80
2022-08-27T03:39:58.897Z,139.20
2022-08-27T03:40:59.128Z,170.60
2022-08-27T03:41:59.410Z,182.30
2022-08-27T03:42:59.683Z,170.70
2022-08-27T03:43:59.950Z,169.30
2022-08-27T03:45:00.207Z,174.90
2022-08-27T03:46:02.369Z,168.50
2022-08-27T03:47:00.699Z,171.20
2022-08-27T03:48:00.853Z,180.80
2022-08-27T03:49:01.133Z,172.90
2022-08-27T03:50:01.415Z,152.70
2022-08-27T03:51:01.659Z,180.80
2022-08-27T03:52:01.934Z,169.20
2022-08-27T03:53:02.194Z,175.90
2022-08-27T03:54:02.450Z,177.40
2022-08-27T03:55:02.712Z,164.30
2022-08-27T03:56:02.978Z,169.40
2022-08-27T03:57:03.243Z,158.90
2022-08-27T03:58:03.595Z,154.50
2022-08-27T03:59:03.719Z,152.70
2022-08-27T04:00:03.976Z,146.60
2022-08-27T04:01:04.229Z,157.30
2022-08-27T04:02:05.048Z,149.90
2022-08-27T04:03:04.753Z,140.20
2022-08-27T04:04:04.903Z,134.70
2022-08-27T04:05:05.158Z,152.70
2022-08-27T04:06:05.413Z,142.60
2022-08-27T04:07:05.712Z,155.30
2022-08-27T04:08:05.961Z,147.60
2022-08-27T04:09:06.248Z,165.40
2022-08-27T04:10:06.506Z,148.00
2022-08-27T04:11:06.760Z,157.00
2022-08-27T04:12:07.025Z,152.10
2022-08-27T04:13:07.281Z,160.30
2022-08-27T04:14:26.197Z,156.00
2022-08-27T04:15:08.757Z,152.40
2022-08-27T04:16:08.023Z,153.10
2022-08-27T04:17:08.287Z,165.50
2022-08-27T04:18:08.622Z,144.50
2022-08-27T04:19:08.832Z,147.30
2022-08-27T04:20:33.893Z,152.00
2022-08-27T04:21:10.284Z,159.70
2022-08-27T04:22:09.572Z,162.40
2022-08-27T04:23:09.821Z,142.80
2022-08-27T04:24:10.087Z,155.80
2022-08-27T04:25:10.463Z,155.60
2022-08-27T04:26:10.615Z,154.90
2022-08-27T04:27:10.768Z,153.10
2022-08-27T04:28:11.234Z,151.00
2022-08-27T04:29:18.315Z,154.40
2022-08-27T04:30:11.533Z,135.50
2022-08-27T04:31:13.104Z,149.90
2022-08-27T04:32:12.035Z,156.20
2022-08-27T04:33:12.276Z,141.80
2022-08-27T04:34:12.540Z,137.90
2022-08-27T04:35:12.809Z,140.50
2022-08-27T04:36:13.046Z,141.20
2022-08-27T04:37:13.326Z,137.20
2022-08-27T04:38:13.571Z,137.20
2022-08-27T04:39:13.840Z,130.20
2022-08-27T04:40:14.110Z,157.00
2022-08-27T04:41:14.355Z,144.80
2022-08-27T04:42:14.637Z,139.90
2022-08-27T04:43:14.874Z,147.80
2022-08-27T04:44:15.071Z,125.40
2022-08-27T04:45:15.325Z,142.50
2022-08-27T04:46:15.618Z,151.10
2022-08-27T04:47:15.787Z,125.10
2022-08-27T04:48:16.112Z,126.60
2022-08-27T04:49:16.266Z,126.80
2022-08-27T04:50:16.519Z,132.10
2022-08-27T04:51:17.406Z,119.80
2022-08-27T04:52:17.032Z,138.40
2022-08-27T04:53:17.322Z,132.60
2022-08-27T04:54:17.564Z,133.10
2022-08-27T04:55:17.843Z,132.60
2022-08-27T04:56:18.099Z,122.40
2022-08-27T04:57:18.364Z,134.60
2022-08-27T04:58:18.622Z,116.60
2022-08-27T04:59:18.886Z,124.10
2022-08-27T05:00:19.156Z,126.70
2022-08-27T05:01:19.441Z,124.80
2022-08-27T05:02:19.615Z,132.90
2022-08-27T05:03:20.146Z,128.10
2022-08-27T05:04:20.123Z,132.10
2022-08-27T05:05:20.446Z,125.00
2022-08-27T05:06:20.601Z,125.40
2022-08-27T05:07:20.897Z,121.50
2022-08-27T05:08:21.053Z,122.00
2022-08-27T05:09:21.312Z,122.10
2022-08-27T05:10:21.581Z,114.90
2022-08-27T05:11:21.833Z,116.70
2022-08-27T05:12:22.122Z,126.00
2022-08-27T05:13:22.396Z,125.40
2022-08-27T05:14:22.648Z,122.60
2022-08-27T05:15:22.936Z,122.80
2022-08-27T05:16:23.284Z,125.30
2022-08-27T05:17:23.428Z,121.50
2022-08-27T05:18:23.682Z,116.20
2022-08-27T05:19:23.948Z,105.20
2022-08-27T05:20:24.199Z,99.60
2022-08-27T05:21:24.453Z,94.60
2022-08-27T05:22:24.766Z,97.90
2022-08-27T05:23:24.908Z,93.10
2022-08-27T05:24:25.153Z,86.20
2022-08-27T05:25:25.401Z,96.20
2022-08-27T05:26:25.649Z,90.60
2022-08-27T05:27:25.908Z,88.70
2022-08-27T05:28:27.801Z,81.00
2022-08-27T05:29:26.381Z,72.10
2022-08-27T05:30:26.633Z,77.80
2022-08-27T05:31:26.933Z,73.20
2022-08-27T05:32:27.195Z,69.90
2022-08-27T05:33:27.452Z,63.70
2022-08-27T05:34:27.709Z,69.00
2022-08-27T05:35:27.940Z,62.10
2022-08-27T05:36:28.190Z,56.60
2022-08-27T05:37:28.483Z,55.90
2022-08-27T05:38:28.731Z,53.80
2022-08-27T05:39:29.013Z,56.10
2022-08-27T05:40:29.338Z,55.30
2022-08-27T05:41:31.713Z,50.80
2022-08-27T05:42:29.786Z,54.30
2022-08-27T05:43:30.050Z,53.30
2022-08-27T05:44:41.041Z,54.80
2022-08-27T05:45:31.512Z,55.40
2022-08-27T05:46:30.795Z,49.00
2022-08-27T05:47:31.080Z,52.70
2022-08-27T05:48:31.339Z,48.40
2022-08-27T05:49:31.582Z,45.40
2022-08-27T05:50:31.841Z,49.60
2022-08-27T05:51:32.092Z,47.80
2022-08-27T05:52:32.357Z,52.70
2022-08-27T05:53:32.609Z,52.00
2022-08-27T05:54:32.861Z,48.90
2022-08-27T05:55:33.122Z,45.50
2022-08-27T05:56:33.384Z,45.70
2022-08-27T05:57:33.732Z,44.90
2022-08-27T05:58:33.875Z,44.70
2022-08-27T05:59:34.936Z,43.50
2022-08-27T06:00:34.358Z,45.00
2022-08-27T06:01:34.609Z,41.00
2022-08-27T06:02:34.932Z,41.60
2022-08-27T06:03:35.044Z,40.90
2022-08-27T06:04:35.319Z,45.10
2022-08-27T06:05:35.621Z,36.40
2022-08-27T06:06:35.789Z,40.10
2022-08-27T06:07:36.090Z,40.00
2022-08-27T06:08:36.347Z,41.10
2022-08-27T06:09:36.635Z,42.10
2022-08-27T06:10:36.763Z,38.70
2022-08-27T06:11:37.007Z,36.20
2022-08-27T06:12:37.274Z,34.90
2022-08-27T06:13:37.606Z,35.30
2022-08-27T06:14:37.778Z,35.30
2022-08-27T06:15:38.122Z,34.00
2022-08-27T06:16:38.271Z,36.40
2022-08-27T06:17:38.495Z,32.70
2022-08-27T06:18:38.640Z,30.90
2022-08-27T06:19:38.959Z,29.80
2022-08-27T06:20:39.103Z,34.20
2022-08-27T06:21:39.369Z,29.50
2022-08-27T06:22:39.531Z,29.40
2022-08-27T06:23:39.930Z,31.50
2022-08-27T06:24:39.973Z,28.50
2022-08-27T06:25:40.218Z,28.30
2022-08-27T06:26:40.467Z,34.00
2022-08-27T06:27:40.710Z,30.10
2022-08-27T06:28:40.951Z,31.10
2022-08-27T06:29:41.201Z,31.70
2022-08-27T06:30:41.518Z,31.60
2022-08-27T06:31:41.674Z,32.10
2022-08-27T06:32:41.914Z,32.10
2022-08-27T06:33:42.178Z,36.20
2022-08-27T06:34:42.424Z,38.30
2022-08-27T06:35:42.663Z,34.30
2022-08-27T06:36:42.897Z,32.90
2022-08-27T06:37:43.158Z,32.10
2022-08-27T06:38:43.418Z,32.30
2022-08-27T06:39:43.663Z,34.70
2022-08-27T06:40:43.789Z,31.40
2022-08-27T06:41:44.042Z,29.70
2022-08-27T06:42:44.315Z,33.50
2022-08-27T06:43:44.541Z,33.00
2022-08-27T06:44:44.797Z,31.90
2022-08-27T06:45:45.042Z,31.70
2022-08-27T06:46:45.378Z,32.50
2022-08-27T06:47:45.586Z,31.70
2022-08-27T06:48:45.836Z,30.60
2022-08-27T06:49:46.485Z,33.10
2022-08-27T06:50:46.241Z,33.70
2022-08-27T06:51:46.487Z,30.20
2022-08-27T06:52:46.757Z,28.90
2022-08-27T06:53:46.998Z,31.40
2022-08-27T06:54:47.363Z,33.20
2022-08-27T06:55:47.593Z,30.40
2022-08-27T06:56:47.747Z,30.00
2022-08-27T06:57:47.980Z,29.50
2022-08-27T06:58:48.227Z,26.00
2022-08-27T06:59:48.466Z,28.00
2022-08-27T07:00:49.158Z,29.00
2022-08-27T07:01:49.099Z,27.70
2022-08-27T07:02:49.308Z,27.10
2022-08-27T07:03:49.444Z,26.70
2022-08-27T07:04:49.722Z,29.20
2022-08-27T07:05:49.975Z,26.20
2022-08-27T07:06:50.224Z,24.50
2022-08-27T07:07:50.496Z,25.70
2022-08-27T07:08:53.081Z,22.70
2022-08-27T07:09:50.946Z,22.70
2022-08-27T07:10:51.190Z,24.80
2022-08-27T07:11:51.435Z,24.50
2022-08-27T07:12:51.733Z,22.60
2022-08-27T07:13:51.859Z,23.70
2022-08-27T07:14:53.101Z,21.30
2022-08-27T07:15:52.447Z,24.90
2022-08-27T07:16:52.614Z,18.80
2022-08-27T07:17:52.842Z,19.90
2022-08-27T07:18:53.122Z,21.60
2022-08-27T07:19:53.282Z,20.40
2022-08-27T07:20:53.545Z,19.60
2022-08-27T07:21:53.800Z,23.50
2022-08-27T07:22:54.078Z,21.60
2022-08-27T07:23:54.395Z,17.70
2022-08-27T07:24:54.549Z,21.30
2022-08-27T07:25:54.777Z,20.90
2022-08-27T07:26:55.023Z,18.50
2022-08-27T07:27:55.286Z,17.00
2022-08-27T07:28:55.572Z,19.60
2022-08-27T07:29:56.584Z,16.20
2022-08-27T07:30:55.984Z,16.70
2022-08-27T07:31:56.277Z,17.30
2022-08-27T07:32:56.315Z,18.70
2022-08-27T07:33:56.556Z,16.00
2022-08-27T07:34:56.799Z,19.60
2022-08-27T07:35:57.039Z,15.30
2022-08-27T07:36:57.281Z,18.60
2022-08-27T07:37:57.576Z,17.70
2022-08-27T07:39:01.660Z,19.30
2022-08-27T07:39:58.028Z,20.80
2022-08-27T07:40:58.259Z,18.80
2022-08-27T07:41:58.500Z,20.70
2022-08-27T07:42:58.770Z,20.30
2022-08-27T07:43:59.026Z,21.90
2022-08-27T07:44:59.290Z,21.60
2022-08-27T07:45:59.574Z,16.80
2022-08-27T07:46:59.727Z,20.40
2022-08-27T07:47:59.984Z,18.70
2022-08-27T07:49:00.226Z,21.70
2022-08-27T07:50:00.465Z,22.60
2022-08-27T07:51:00.775Z,22.70
2022-08-27T07:52:00.905Z,22.70
2022-08-27T07:53:01.168Z,19.50
2022-08-27T07:54:01.408Z,21.10
2022-08-27T07:55:01.675Z,17.50
2022-08-27T07:56:01.938Z,22.00
2022-08-27T07:57:02.145Z,19.50
2022-08-27T07:58:02.405Z,19.80
2022-08-27T07:59:02.648Z,17.10
2022-08-27T08:00:02.894Z,20.90
2022-08-27T08:01:03.164Z,18.00
2022-08-27T08:02:03.436Z,17.80
2022-08-27T08:03:03.892Z,20.00
2022-08-27T08:04:03.915Z,22.10
2022-08-27T08:05:04.205Z,16.50
2022-08-27T08:06:04.334Z,18.30
2022-08-27T08:07:04.583Z,16.40
2022-08-27T08:08:04.839Z,19.90
2022-08-27T08:09:05.106Z,15.70
2022-08-27T08:10:05.340Z,19.20
2022-08-27T08:11:05.579Z,15.80
2022-08-27T08:12:05.827Z,19.30
2022-08-27T08:13:06.088Z,20.00
2022-08-27T08:14:06.350Z,16.10
2022-08-27T08:15:06.587Z,18.30
2022-08-27T08:16:06.841Z,20.60
2022-08-27T08:17:10.336Z,18.50
2022-08-27T08:18:07.308Z,18.20
2022-08-27T08:19:07.531Z,19.80
2022-08-27T08:20:41.249Z,16.90
2022-08-27T08:21:08.966Z,19.60
2022-08-27T08:22:08.195Z,17.90
2022-08-27T08:23:09.785Z,15.20
2022-08-27T08:24:08.706Z,18.40
2022-08-27T08:25:10.611Z,17.80
2022-08-27T08:26:09.164Z,19.80
2022-08-27T08:27:09.408Z,16.90
2022-08-27T08:28:09.727Z,17.80
2022-08-27T08:29:13.814Z,16.10
2022-08-27T08:30:11.117Z,17.20
2022-08-27T08:31:10.441Z,16.30
2022-08-27T08:32:10.549Z,19.60
2022-08-27T08:33:10.823Z,20.90
2022-08-27T08:34:10.949Z,22.00
2022-08-27T08:35:11.240Z,22.70
2022-08-27T08:36:11.497Z,18.60
2022-08-27T08:37:11.747Z,18.90
2022-08-27T08:38:12.150Z,21.70
2022-08-27T08:39:12.206Z,20.70
2022-08-27T08:40:12.482Z,19.30
2022-08-27T08:41:12.611Z,20.30
2022-08-27T08:42:12.866Z,21.00
2022-08-27T08:43:13.114Z,20.80
2022-08-27T08:44:13.356Z,22.50
2022-08-27T08:45:13.585Z,20.50
2022-08-27T08:46:13.865Z,21.30
2022-08-27T08:47:14.087Z,18.90
2022-08-27T08:48:14.480Z,20.50
2022-08-27T08:49:14.520Z,20.50
2022-08-27T08:50:17.972Z,21.40
2022-08-27T08:51:15.856Z,19.50
2022-08-27T08:52:30.971Z,23.20
2022-08-27T08:53:16.301Z,21.30
2022-08-27T08:54:15.544Z,19.80
2022-08-27T08:55:15.799Z,21.50
2022-08-27T08:56:16.016Z,21.30
2022-08-27T08:57:18.700Z,17.10
2022-08-27T08:58:16.488Z,18.50
2022-08-27T08:59:16.719Z,19.50
2022-08-27T09:00:17.048Z,23.20
2022-08-27T09:01:17.266Z,21.10
2022-08-27T09:02:17.413Z,19.30
2022-08-27T09:03:17.665Z,21.40
2022-08-27T09:04:17.903Z,21.30
2022-08-27T09:05:18.161Z,20.80
2022-08-27T09:06:18.394Z,18.00
2022-08-27T09:07:18.654Z,20.20
2022-08-27T09:08:34.230Z,22.00
2022-08-27T09:09:20.131Z,19.50
2022-08-27T09:10:19.354Z,19.90
2022-08-27T09:11:19.591Z,20.10
2022-08-27T09:12:19.848Z,20.60
2022-08-27T09:13:20.173Z,19.60
2022-08-27T09:14:20.354Z,21.40
2022-08-27T09:15:20.507Z,16.90
2022-08-27T09:16:20.753Z,18.30
2022-08-27T09:17:20.985Z,19.80
2022-08-27T09:18:21.241Z,18.40
2022-08-27T09:19:24.010Z,23.00
2022-08-27T09:20:21.603Z,22.20
2022-08-27T09:21:27.501Z,19.30
2022-08-27T09:22:23.002Z,19.30
2022-08-27T09:23:22.252Z,22.90
2022-08-27T09:24:22.501Z,21.80
2022-08-27T09:25:22.752Z,18.90
2022-08-27T09:26:23.048Z,21.90
2022-08-27T09:27:23.175Z,20.30
2022-08-27T09:28:23.428Z,19.40
2022-08-27T09:29:23.654Z,25.00
2022-08-27T09:30:27.448Z,19.60
2022-08-27T09:31:25.129Z,22.20
2022-08-27T09:32:24.269Z,21.20
2022-08-27T09:33:24.523Z,18.60
2022-08-27T09:34:24.778Z,28.60
2022-08-27T09:35:25.030Z,21.20
2022-08-27T09:36:25.307Z,20.90
2022-08-27T09:37:34.312Z,25.10
2022-08-27T09:38:26.765Z,24.60
2022-08-27T09:39:26.012Z,21.20
2022-08-27T09:40:26.263Z,31.00
2022-08-27T09:41:26.492Z,26.30
2022-08-27T09:42:26.715Z,29.00
2022-08-27T09:43:26.963Z,21.70
2022-08-27T09:44:27.196Z,25.40
2022-08-27T09:45:27.586Z,32.60
2022-08-27T09:46:27.693Z,25.00
2022-08-27T09:47:27.942Z,24.80
2022-08-27T09:48:28.173Z,25.70
2022-08-27T09:49:28.411Z,23.00
2022-08-27T09:50:28.646Z,23.00
2022-08-27T09:51:28.874Z,21.50
2022-08-27T09:52:29.098Z,22.70
2022-08-27T09:53:29.343Z,21.40
2022-08-27T09:54:29.600Z,19.50
2022-08-27T09:55:29.731Z,17.80
2022-08-27T09:56:29.976Z,21.10
2022-08-27T09:57:30.746Z,19.80
2022-08-27T09:58:30.412Z,21.60
2022-08-27T09:59:30.636Z,19.70
2022-08-27T10:00:30.860Z,17.80
2022-08-27T10:01:31.140Z,17.80
2022-08-27T10:02:31.250Z,23.90
2022-08-27T10:03:33.613Z,17.60
2022-08-27T10:04:31.711Z,17.70
2022-08-27T10:05:31.899Z,22.20
2022-08-27T10:06:32.115Z,18.70
2022-08-27T10:07:32.334Z,14.80
2022-08-27T10:08:32.575Z,16.70
2022-08-27T10:09:32.819Z,14.80
2022-08-27T10:10:33.045Z,18.50
2022-08-27T10:11:33.262Z,20.00
2022-08-27T10:12:33.475Z,15.40
2022-08-27T10:13:33.700Z,17.10
2022-08-27T10:14:33.919Z,16.60
2022-08-27T10:15:41.937Z,16.30
2022-08-27T10:16:35.356Z,17.20
2022-08-27T10:17:34.442Z,16.50
2022-08-27T10:18:34.679Z,15.40
2022-08-27T10:19:34.886Z,14.60
2022-08-27T10:20:35.095Z,14.00
2022-08-27T10:21:35.301Z,16.10
2022-08-27T10:22:35.519Z,15.10
2022-08-27T10:23:35.753Z,16.30
2022-08-27T10:24:35.972Z,14.10
2022-08-27T10:25:36.182Z,11.50
2022-08-27T10:26:36.391Z,15.60
2022-08-27T10:27:36.603Z,15.30
2022-08-27T10:28:36.852Z,13.00
2022-08-27T10:29:44.081Z,14.50
2022-08-27T10:30:37.274Z,14.20
2022-08-27T10:31:37.573Z,14.10
2022-08-27T10:32:37.641Z,12.40
2022-08-27T10:33:37.880Z,14.00
2022-08-27T10:34:38.106Z,13.00
2022-08-27T10:35:48.042Z,10.90
2022-08-27T10:36:39.439Z,10.70
2022-08-27T10:37:40.532Z,10.70
2022-08-27T10:38:43.793Z,13.10
2022-08-27T10:39:40.080Z,12.40
2022-08-27T10:40:39.387Z,9.30
2022-08-27T10:41:39.515Z,14.10
2022-08-27T10:42:39.710Z,13.80
2022-08-27T10:43:39.921Z,12.70
2022-08-27T10:44:40.149Z,10.20
2022-08-27T10:45:40.374Z,11.60
2022-08-27T10:46:40.566Z,14.70
2022-08-27T10:47:41.726Z,13.10
2022-08-27T10:48:40.957Z,13.10
2022-08-27T10:49:41.200Z,12.60
2022-08-27T10:50:41.335Z,11.30
2022-08-27T10:51:41.545Z,10.20
2022-08-27T10:52:41.681Z,14.50
2022-08-27T10:53:41.981Z,14.30
2022-08-27T10:54:42.056Z,12.90
2022-08-27T10:55:42.268Z,11.40
2022-08-27T10:56:42.474Z,9.90
2022-08-27T10:57:56.497Z,11.40
2022-08-27T10:58:43.885Z,7.90
2022-08-27T10:59:43.125Z,12.70
2022-08-27T11:00:43.351Z,11.90
2022-08-27T11:01:43.455Z,13.70
2022-08-27T11:02:43.671Z,17.20
2022-08-27T11:03:43.892Z,10.00
2022-08-27T11:04:44.119Z,12.50
2022-08-27T11:05:44.319Z,9.10
2022-08-27T11:06:44.539Z,11.70
2022-08-27T11:07:44.760Z,14.40
2022-08-27T11:08:45.001Z,10.60
2022-08-27T11:09:45.205Z,13.00
2022-08-27T11:10:45.426Z,12.00
2022-08-27T11:12:46.820Z,9.30
2022-08-27T11:13:46.046Z,9.00
2022-08-27T11:14:46.266Z,11.20
2022-08-27T11:15:46.500Z,11.90
2022-08-27T11:16:46.791Z,8.70
2022-08-27T11:17:46.886Z,9.50
2022-08-27T11:18:47.125Z,8.10
2022-08-27T11:19:47.347Z,12.30
2022-08-27T11:20:47.563Z,8.70
2022-08-27T11:21:47.786Z,10.30
2022-08-27T11:22:48.004Z,8.80
2022-08-27T11:23:48.248Z,9.30
2022-08-27T11:24:48.457Z,8.90
2022-08-27T11:25:48.667Z,12.10
2022-08-27T11:26:48.913Z,10.80
2022-08-27T11:27:49.137Z,9.50
2022-08-27T11:28:49.379Z,7.50
2022-08-27T11:29:49.624Z,9.70
2022-08-27T11:30:49.799Z,9.50
2022-08-27T11:31:50.101Z,10.00
2022-08-27T11:32:50.292Z,8.30
2022-08-27T11:33:50.527Z,8.60
2022-08-27T11:34:50.753Z,8.40
2022-08-27T11:35:50.981Z,8.60
2022-08-27T11:36:54.354Z,8.70
2022-08-27T11:37:51.485Z,9.30
2022-08-27T11:38:51.726Z,8.50
2022-08-27T11:39:52.136Z,7.90
2022-08-27T11:40:52.132Z,7.40
2022-08-27T11:41:52.382Z,8.40
2022-08-27T11:42:52.612Z,8.90
2022-08-27T11:43:52.849Z,8.70
2022-08-27T11:44:53.080Z,7.70
2022-08-27T11:45:53.306Z,9.60
2022-08-27T11:46:53.651Z,8.10
2022-08-27T11:47:53.790Z,12.40
2022-08-27T11:48:54.995Z,8.30
2022-08-27T11:49:54.222Z,7.70
2022-08-27T11:50:54.458Z,7.40
2022-08-27T11:51:54.675Z,8.70
2022-08-27T11:52:54.905Z,9.20
2022-08-27T11:53:55.147Z,7.30
2022-08-27T11:54:55.395Z,7.00
2022-08-27T11:55:55.625Z,10.60
2022-08-27T11:56:55.858Z,9.40
2022-08-27T11:57:56.131Z,8.50
2022-08-27T11:58:56.351Z,8.80
2022-08-27T11:59:56.582Z,6.70
2022-08-27T12:00:58.961Z,11.50
2022-08-27T12:01:57.978Z,9.80
2022-08-27T12:02:57.266Z,8.40
2022-08-27T12:03:57.437Z,6.50
2022-08-27T12:04:57.567Z,7.00
2022-08-27T12:05:57.810Z,8.20
2022-08-27T12:06:58.061Z,6.00
2022-08-27T12:07:58.302Z,8.00
2022-08-27T12:08:58.546Z,8.40
2022-08-27T12:09:58.784Z,7.90
2022-08-27T12:10:59.581Z,7.60
2022-08-27T12:11:59.256Z,7.50
2022-08-27T12:13:00.804Z,7.00
2022-08-27T12:13:59.785Z,9.20
2022-08-27T12:14:59.912Z,8.40
2022-08-27T12:16:00.203Z,8.20
2022-08-27T12:17:00.336Z,8.10
2022-08-27T12:18:00.559Z,9.00
2022-08-27T12:19:00.832Z,8.00
2022-08-27T12:20:00.977Z,6.50
2022-08-27T12:21:01.196Z,8.00
2022-08-27T12:22:01.415Z,7.00
2022-08-27T12:23:01.641Z,7.70
2022-08-27T12:24:01.878Z,12.30
2022-08-27T12:25:02.111Z,12.60
2022-08-27T12:26:02.346Z,10.90
2022-08-27T12:27:02.605Z,11.20
2022-08-27T12:28:02.834Z,11.00
2022-08-27T12:29:03.070Z,11.40
2022-08-27T12:30:03.306Z,13.40
2022-08-27T12:31:03.519Z,12.00
2022-08-27T12:32:03.741Z,11.60
2022-08-27T12:33:03.963Z,10.90
2022-08-27T12:34:04.205Z,11.30
2022-08-27T12:35:04.436Z,11.60
2022-08-27T12:36:04.602Z,12.10
2022-08-27T12:37:05.215Z,11.10
2022-08-27T12:38:05.116Z,11.90
2022-08-27T12:39:05.272Z,10.50
2022-08-27T12:40:05.559Z,11.00
2022-08-27T12:41:05.722Z,10.00
2022-08-27T12:42:05.945Z,11.50
2022-08-27T12:43:06.165Z,11.10
2022-08-27T12:44:06.421Z,12.00
2022-08-27T12:45:06.529Z,9.10
2022-08-27T12:46:06.731Z,12.90
2022-08-27T12:47:07.013Z,11.50
2022-08-27T12:48:07.149Z,12.70
2022-08-27T12:49:35.820Z,9.90
2022-08-27T12:50:08.499Z,11.50